Time;durP1;ratioP1;P1;durP2;ratioP2;P2;SDS_P1;SDS_P2;PMS_P1;PMS_P2;Temp;Humidity;BMP_temperature;BMP_pressure;BME280_temperature;BME280_humidity;BME280_pressure;Samples;Min_cycle;Max_cycle;Signal;HPM_P1;HPM_P2
2021/12/21 00:00:56;;;;;;;;;;;;;;;2.86;66.21;102712.31;5055851;28;19921;-60
2021/12/21 00:03:21;;;;;;;;;;;;;;;2.85;66.02;102716.06;5055444;28;19917;-60
2021/12/21 00:05:49;;;;;;;;;;;;;;;2.84;65.53;102720.69;5052490;28;20352;-60
2021/12/21 00:08:16;;;;;;;;;;;;;;;2.81;66.31;102707.28;5040650;28;19928;-60
2021/12/21 00:10:44;;;;;;;;;;;;;;;2.80;66.04;102719.28;5054097;28;19925;-60
2021/12/21 00:13:35;;;;;;;;;;;;;;;2.77;65.71;102714.13;5055740;28;19959;-60
2021/12/21 00:18:39;;;;;;;;;;;;;;;2.78;65.52;102710.34;5054274;28;19935;-60
2021/12/21 00:24:14;;;;;;;;;;;;;;;2.82;66.07;102708.16;5013710;28;19924;-60
2021/12/21 00:26:39;;;;;;;;;;;;;;;2.81;65.81;102703.69;5038131;28;19921;-60
2021/12/21 00:29:05;;;;;;;;;;;;;;;2.77;65.68;102703.16;5054515;28;19942;-60
2021/12/21 00:31:31;;;;;;;;;;;;;;;2.75;66.13;102698.81;5054062;28;20012;-60
2021/12/21 00:33:57;;;;;;;;;;;;;;;2.74;65.53;102697.09;5054745;28;19928;-60
2021/12/21 00:36:23;;;;;;;;;;;;;;;2.73;66.00;102695.41;5055272;28;19921;-60
2021/12/21 00:38:50;;;;;;;;;;;;;;;2.70;66.20;102697.41;5052589;28;19924;-61
2021/12/21 00:41:16;;;;;;;;;;;;;;;2.67;65.46;102697.75;5039297;28;20296;-60
2021/12/21 00:43:41;;;;;;;;;;;;;;;2.65;65.87;102694.28;5050906;28;19927;-60
2021/12/21 00:46:06;;;;;;;;;;;;;;;2.63;65.58;102689.97;5052352;28;19920;-60
2021/12/21 00:48:33;;;;;;;;;;;;;;;2.60;65.65;102690.31;5054572;28;20050;-60
2021/12/21 00:51:00;;;;;;;;;;;;;;;2.58;65.50;102690.44;5054598;28;19921;-61
2021/12/21 00:53:25;;;;;;;;;;;;;;;2.58;65.39;102687.69;5052732;28;20367;-60
2021/12/21 00:55:51;;;;;;;;;;;;;;;2.57;66.13;102688.72;5049959;28;19929;-60
2021/12/21 00:58:16;;;;;;;;;;;;;;;2.54;66.22;102691.78;5052551;28;19940;-60
2021/12/21 01:00:41;;;;;;;;;;;;;;;2.52;65.76;102682.00;5036120;28;19928;-60
2021/12/21 01:03:11;;;;;;;;;;;;;;;2.50;65.32;102693.09;5031213;28;20365;-60
2021/12/21 01:08:15;;;;;;;;;;;;;;;2.47;65.81;102683.28;5034591;28;19917;-60
2021/12/21 01:13:28;;;;;;;;;;;;;;;2.46;65.91;102694.44;5021721;28;20012;-60
2021/12/21 01:16:03;;;;;;;;;;;;;;;2.45;65.40;102692.72;5027258;28;19999;-60
2021/12/21 01:18:40;;;;;;;;;;;;;;;2.44;65.37;102689.13;5031592;28;19921;-60
2021/12/21 01:21:18;;;;;;;;;;;;;;;2.44;65.27;102694.59;5042145;28;20370;-60
2021/12/21 01:24:00;;;;;;;;;;;;;;;2.42;66.10;102687.53;5034370;28;19933;-60
2021/12/21 01:26:52;;;;;;;;;;;;;;;2.43;65.64;102689.25;5025632;28;19969;-60
2021/12/21 01:29:35;;;;;;;;;;;;;;;2.41;65.97;102688.56;5049871;28;19929;-60
2021/12/21 01:32:16;;;;;;;;;;;;;;;2.40;65.30;102684.09;5015386;28;20399;-60
2021/12/21 01:37:34;;;;;;;;;;;;;;;2.40;66.09;102684.09;5049804;28;20394;-60
2021/12/21 01:42:40;;;;;;;;;;;;;;;2.37;65.03;102678.91;5013925;28;19918;-61
2021/12/21 01:49:36;;;;;;;;;;;;;;;2.35;65.76;102672.72;5018788;28;20424;-60
2021/12/21 01:50:44;;;;;;;;;;;;;;;2.30;65.55;102675.06;5022651;28;20284;-60
2021/12/21 01:53:09;;;;;;;;;;;;;;;2.29;65.63;102668.72;5030350;28;19922;-60
2021/12/21 01:55:34;;;;;;;;;;;;;;;2.28;65.04;102668.88;5033424;28;19925;-60
2021/12/21 01:58:00;;;;;;;;;;;;;;;2.27;65.15;102661.66;5048923;28;19990;-60
2021/12/21 02:00:27;;;;;;;;;;;;;;;2.26;65.18;102668.19;5071103;28;19921;-60
2021/12/21 02:02:52;;;;;;;;;;;;;;;2.23;65.92;102666.59;5053655;28;19924;-60
2021/12/21 02:05:17;;;;;;;;;;;;;;;2.20;65.44;102662.31;5038955;28;19921;-60
2021/12/21 02:07:43;;;;;;;;;;;;;;;2.21;65.38;102657.69;5036828;28;19922;-60
2021/12/21 02:10:08;;;;;;;;;;;;;;;2.20;65.74;102655.94;5050881;28;19921;-60
2021/12/21 02:12:33;;;;;;;;;;;;;;;2.16;65.48;102652.66;5053210;28;19921;-60
2021/12/21 02:15:00;;;;;;;;;;;;;;;2.16;65.79;102649.94;5053095;28;19921;-60
2021/12/21 02:20:48;;;;;;;;;;;;;;;2.13;65.89;102650.22;5052284;28;20353;-60
2021/12/21 02:23:09;;;;;;;;;;;;;;;2.13;64.99;102646.63;5045863;28;19928;-60
2021/12/21 02:31:07;;;;;;;;;;;;;;;2.03;65.13;102660.38;5023255;28;19921;-60
2021/12/21 02:33:33;;;;;;;;;;;;;;;2.03;65.71;102659.50;5053222;28;19928;-60
2021/12/21 02:35:59;;;;;;;;;;;;;;;2.01;65.68;102651.47;5053378;28;20399;-60
2021/12/21 02:38:25;;;;;;;;;;;;;;;2.02;65.91;102655.06;5052438;28;19956;-60
2021/12/21 02:40:50;;;;;;;;;;;;;;;2.01;65.84;102653.34;5040246;28;19966;-60
2021/12/21 02:43:15;;;;;;;;;;;;;;;2.02;65.73;102649.56;5051387;28;19925;-60
2021/12/21 02:45:41;;;;;;;;;;;;;;;2.00;65.32;102646.13;5048130;28;19920;-60
2021/12/21 02:48:07;;;;;;;;;;;;;;;1.98;65.41;102654.50;5050739;28;20419;-60
2021/12/21 02:50:33;;;;;;;;;;;;;;;1.97;65.82;102650.03;5051604;28;20011;-59
2021/12/21 02:52:59;;;;;;;;;;;;;;;1.96;65.63;102645.56;5051142;28;19920;-60
2021/12/21 02:55:25;;;;;;;;;;;;;;;1.92;65.03;102653.22;5050383;28;20283;-60
2021/12/21 02:57:50;;;;;;;;;;;;;;;1.91;65.47;102650.63;5035605;28;19921;-60
2021/12/21 03:00:16;;;;;;;;;;;;;;;1.89;65.55;102647.22;5046809;28;19920;-60
2021/12/21 03:02:41;;;;;;;;;;;;;;;1.86;65.91;102642.88;5053166;28;20098;-60
2021/12/21 03:05:06;;;;;;;;;;;;;;;1.85;64.96;102646.63;5052289;28;20357;-60
2021/12/21 03:10:02;;;;;;;;;;;;;;;1.79;65.30;102641.75;5053151;28;19920;-60
2021/12/21 03:15:14;;;;;;;;;;;;;;;1.77;64.97;102648.38;5041738;28;19921;-60
2021/12/21 03:17:39;;;;;;;;;;;;;;;1.78;65.52;102647.41;5056655;28;19974;-60
2021/12/21 03:20:05;;;;;;;;;;;;;;;1.78;65.08;102633.72;5055948;28;19921;-60
2021/12/21 03:22:30;;;;;;;;;;;;;;;1.75;65.66;102634.00;5055467;28;19952;-60
2021/12/21 03:24:55;;;;;;;;;;;;;;;1.72;65.46;102635.16;5055962;28;19928;-60
2021/12/21 03:27:20;;;;;;;;;;;;;;;1.70;65.91;102631.72;5056078;28;19917;-60
2021/12/21 03:29:45;;;;;;;;;;;;;;;1.69;65.42;102640.94;5051488;28;20007;-60
2021/12/21 03:32:11;;;;;;;;;;;;;;;1.68;65.18;102631.00;5048251;28;20415;-60
2021/12/21 03:34:36;;;;;;;;;;;;;;;1.66;65.18;102636.63;5055563;28;19921;-60
2021/12/21 03:37:03;;;;;;;;;;;;;;;1.64;65.77;102635.91;5055841;28;20399;-60
2021/12/21 03:39:28;;;;;;;;;;;;;;;1.65;65.15;102634.94;5055486;28;20299;-60
2021/12/21 03:41:57;;;;;;;;;;;;;;;1.65;65.11;102632.19;5054965;28;19925;-60
2021/12/21 03:44:22;;;;;;;;;;;;;;;1.66;65.29;102624.84;5056286;28;19924;-60
2021/12/21 03:46:51;;;;;;;;;;;;;;;1.65;65.72;102625.81;5056001;28;20384;-60
2021/12/21 03:52:03;;;;;;;;;;;;;;;1.68;65.17;102623.66;5055746;28;19921;-60
2021/12/21 03:54:28;;;;;;;;;;;;;;;1.66;64.88;102628.44;5051046;28;19928;-60
2021/12/21 03:56:53;;;;;;;;;;;;;;;1.65;65.55;102628.56;5053700;28;19920;-60
2021/12/21 03:59:20;;;;;;;;;;;;;;;1.65;65.78;102634.94;5053386;28;19921;-60
2021/12/21 04:01:46;;;;;;;;;;;;;;;1.63;65.30;102619.66;5053552;28;19920;-60
2021/12/21 04:04:11;;;;;;;;;;;;;;;1.62;64.96;102621.53;5052184;28;20387;-60
2021/12/21 04:06:37;;;;;;;;;;;;;;;1.61;65.05;102616.19;5048660;28;20350;-60
2021/12/21 04:09:03;;;;;;;;;;;;;;;1.60;65.20;102626.28;5054971;28;19939;-60
2021/12/21 04:11:29;;;;;;;;;;;;;;;1.59;64.99;102626.44;5054750;28;20006;-60
2021/12/21 04:13:54;;;;;;;;;;;;;;;1.58;65.02;102627.47;5054936;28;19928;-60
2021/12/21 04:16:19;;;;;;;;;;;;;;;1.58;65.52;102622.84;5055253;28;20355;-60
2021/12/21 04:18:44;;;;;;;;;;;;;;;1.53;65.34;102625.16;5054565;28;20359;-60
2021/12/21 04:21:12;;;;;;;;;;;;;;;1.50;65.04;102617.28;5054941;28;19917;-60
2021/12/21 04:23:37;;;;;;;;;;;;;;;1.47;65.21;102620.31;5045358;28;19921;-60
2021/12/21 04:26:02;;;;;;;;;;;;;;;1.44;65.38;102626.06;5053610;28;20040;-60
2021/12/21 04:28:27;;;;;;;;;;;;;;;1.44;65.05;102623.31;5055075;28;19956;-60
2021/12/21 04:30:53;;;;;;;;;;;;;;;1.44;65.09;102620.59;5054397;28;19975;-60
2021/12/21 04:33:18;;;;;;;;;;;;;;;1.44;65.50;102626.91;5055706;28;19917;-60
2021/12/21 04:35:43;;;;;;;;;;;;;;;1.43;64.90;102625.22;5054400;28;19944;-60
2021/12/21 04:38:20;;;;;;;;;;;;;;;1.38;65.24;102622.06;5054488;28;19921;-60
2021/12/21 04:40:48;;;;;;;;;;;;;;;1.36;65.51;102621.34;5041156;28;19921;-60
2021/12/21 04:43:13;;;;;;;;;;;;;;;1.36;65.13;102618.59;5051607;28;20287;-60
2021/12/21 04:45:38;;;;;;;;;;;;;;;1.37;65.17;102614.00;5051337;28;19920;-60
2021/12/21 04:48:03;;;;;;;;;;;;;;;1.38;65.03;102604.78;5053575;28;20445;-60
2021/12/21 04:50:29;;;;;;;;;;;;;;;1.38;65.33;102608.38;5054761;28;20368;-60
2021/12/21 04:52:54;;;;;;;;;;;;;;;1.39;65.32;102617.44;5052954;28;19991;-60
2021/12/21 04:55:19;;;;;;;;;;;;;;;1.36;65.69;102617.75;5050105;28;19921;-60
2021/12/21 04:57:44;;;;;;;;;;;;;;;1.37;65.05;102614.84;5035952;28;19918;-59
2021/12/21 05:00:10;;;;;;;;;;;;;;;1.36;65.73;102610.41;5034675;28;19960;-59
2021/12/21 05:02:35;;;;;;;;;;;;;;;1.34;65.16;102606.97;5035196;28;19928;-59
2021/12/21 05:05:00;;;;;;;;;;;;;;;1.32;65.51;102619.06;5033696;28;19929;-59
2021/12/21 05:07:29;;;;;;;;;;;;;;;1.29;65.11;102606.53;5015722;28;19922;-59
2021/12/21 05:09:57;;;;;;;;;;;;;;;1.28;65.42;102617.63;5033963;28;19921;-59
2021/12/21 05:12:23;;;;;;;;;;;;;;;1.25;65.48;102616.03;5033015;28;19959;-59
2021/12/21 05:14:48;;;;;;;;;;;;;;;1.23;65.26;102618.94;5027649;28;19975;-60
2021/12/21 05:17:13;;;;;;;;;;;;;;;1.22;65.47;102617.22;5034305;28;19921;-59
2021/12/21 05:19:38;;;;;;;;;;;;;;;1.21;65.62;102618.22;5033740;28;19929;-59
2021/12/21 05:22:04;;;;;;;;;;;;;;;1.19;65.16;102612.03;5031252;28;20391;-60
2021/12/21 05:24:29;;;;;;;;;;;;;;;1.17;65.31;102614.03;5034114;28;20003;-60
2021/12/21 05:26:54;;;;;;;;;;;;;;;1.18;65.04;102620.41;5032389;28;19921;-60
2021/12/21 05:29:20;;;;;;;;;;;;;;;1.18;65.68;102618.53;5033051;28;19925;-60
2021/12/21 05:31:45;;;;;;;;;;;;;;;1.18;65.05;102620.41;5029998;28;20373;-60
2021/12/21 05:34:10;;;;;;;;;;;;;;;1.15;65.66;102610.63;5033247;28;19928;-60
2021/12/21 05:36:36;;;;;;;;;;;;;;;1.15;65.85;102616.09;5037452;28;20022;-60
2021/12/21 05:39:04;;;;;;;;;;;;;;;1.15;65.19;102621.56;5031341;28;19921;-60
2021/12/21 05:41:51;;;;;;;;;;;;;;;1.16;65.52;102616.94;5038916;28;19921;-60
2021/12/21 05:44:17;;;;;;;;;;;;;;;1.17;65.72;102610.47;5030096;28;19921;-60
2021/12/21 05:46:42;;;;;;;;;;;;;;;1.15;65.41;102607.88;5026470;28;20193;-59
2021/12/21 05:49:07;;;;;;;;;;;;;;;1.15;65.08;102617.97;5021745;28;19917;-60
2021/12/21 05:51:32;;;;;;;;;;;;;;;1.13;64.88;102626.28;5033841;28;19921;-60
2021/12/21 05:53:58;;;;;;;;;;;;;;;1.12;65.79;102621.84;5041275;28;20319;-60
2021/12/21 05:56:23;;;;;;;;;;;;;;;1.12;65.58;102620.97;5032245;28;20005;-60
2021/12/21 05:58:48;;;;;;;;;;;;;;;1.10;65.59;102617.53;5049689;28;20388;-60
2021/12/21 06:01:13;;;;;;;;;;;;;;;1.10;65.65;102618.41;5051673;28;19960;-60
2021/12/21 06:03:39;;;;;;;;;;;;;;;1.10;65.55;102617.53;5047079;28;19971;-59
2021/12/21 06:06:07;;;;;;;;;;;;;;;1.09;65.79;102613.94;5052645;28;19972;-60
2021/12/21 06:08:32;;;;;;;;;;;;;;;1.09;65.07;102613.94;5052538;28;19920;-60
2021/12/21 06:11:00;;;;;;;;;;;;;;;1.09;64.96;102615.81;5052563;28;20315;-60
2021/12/21 06:27:01;;;;;;;;;;;;;;;1.03;65.03;102619.16;5052213;28;19966;-59
2021/12/21 06:29:26;;;;;;;;;;;;;;;1.03;65.42;102622.75;5052833;28;20342;-60
2021/12/21 06:31:51;;;;;;;;;;;;;;;1.05;65.74;102622.56;5051432;28;19931;-60
2021/12/21 06:34:17;;;;;;;;;;;;;;;1.04;65.52;102610.78;5053349;28;19978;-60
2021/12/21 06:36:42;;;;;;;;;;;;;;;1.01;64.80;102610.22;5051592;28;19924;-60
2021/12/21 06:39:08;;;;;;;;;;;;;;;0.97;65.09;102615.09;5048388;28;19932;-60
2021/12/21 06:41:35;;;;;;;;;;;;;;;0.96;65.23;102611.50;5049533;28;19921;-60
2021/12/21 06:44:02;;;;;;;;;;;;;;;0.96;65.30;102614.25;5052928;28;19928;-61
2021/12/21 06:51:55;;;;;;;;;;;;;;;0.96;65.15;102617.00;5053026;28;19924;-61
2021/12/21 06:54:21;;;;;;;;;;;;;;;0.96;65.03;102616.13;5050861;28;20299;-61
2021/12/21 06:56:46;;;;;;;;;;;;;;;0.93;65.68;102622.75;5044093;28;20862;-61
2021/12/21 06:59:12;;;;;;;;;;;;;;;0.92;64.77;102625.63;5051698;28;20086;-61
2021/12/21 07:01:40;;;;;;;;;;;;;;;0.93;65.02;102621.88;5029582;28;19929;-61
2021/12/21 07:04:07;;;;;;;;;;;;;;;0.90;65.45;102623.03;5012787;28;19921;-61
2021/12/21 07:06:34;;;;;;;;;;;;;;;0.89;64.92;102628.66;5026645;28;20019;-61
2021/12/21 07:09:10;;;;;;;;;;;;;;;0.88;64.80;102624.19;5043075;28;19921;-61
2021/12/21 07:11:45;;;;;;;;;;;;;;;0.86;65.36;102620.72;5018031;28;19975;-61
2021/12/21 07:19:39;;;;;;;;;;;;;;;0.82;65.17;102633.81;5013307;28;19948;-61
2021/12/21 07:22:05;;;;;;;;;;;;;;;0.80;64.97;102637.75;5026342;28;20015;-60
2021/12/21 07:24:30;;;;;;;;;;;;;;;0.78;65.57;102634.28;5032182;28;19924;-59
2021/12/21 07:26:55;;;;;;;;;;;;;;;0.77;65.01;102635.28;5027071;28;19924;-59
2021/12/21 07:29:21;;;;;;;;;;;;;;;0.75;65.20;102632.72;5027330;28;20391;-59
2021/12/21 07:31:46;;;;;;;;;;;;;;;0.75;65.50;102635.44;5031675;28;19921;-59
2021/12/21 07:34:11;;;;;;;;;;;;;;;0.75;64.77;102632.72;5029368;28;19921;-59
2021/12/21 07:36:36;;;;;;;;;;;;;;;0.76;65.45;102630.84;5024774;28;19925;-59
2021/12/21 07:39:05;;;;;;;;;;;;;;;0.77;65.64;102636.16;5027892;28;19931;-60
2021/12/21 07:41:30;;;;;;;;;;;;;;;0.74;65.48;102637.28;5010962;28;19983;-59
2021/12/21 07:43:55;;;;;;;;;;;;;;;0.75;65.51;102635.44;5017365;28;19921;-60
2021/12/21 07:46:21;;;;;;;;;;;;;;;0.74;65.21;102640.03;5021137;28;19929;-60
2021/12/21 07:48:46;;;;;;;;;;;;;;;0.74;65.38;102640.03;5025725;28;19921;-60
2021/12/21 07:51:11;;;;;;;;;;;;;;;0.73;65.48;102637.44;5021267;28;19925;-60
2021/12/21 07:53:37;;;;;;;;;;;;;;;0.74;65.11;102636.44;5021592;28;20027;-60
2021/12/21 07:56:03;;;;;;;;;;;;;;;0.76;65.64;102633.56;5023402;28;19937;-59
2021/12/21 07:58:29;;;;;;;;;;;;;;;0.75;65.40;102651.84;5031323;28;19921;-60
2021/12/21 08:00:55;;;;;;;;;;;;;;;0.73;64.83;102646.50;5052454;28;19944;-60
2021/12/21 08:03:20;;;;;;;;;;;;;;;0.76;64.89;102652.69;5052692;28;19920;-59
2021/12/21 08:05:49;;;;;;;;;;;;;;;0.76;65.57;102648.09;5052170;28;19929;-59
2021/12/21 08:08:18;;;;;;;;;;;;;;;0.76;65.38;102648.09;5053882;28;20265;-60
2021/12/21 08:11:07;;;;;;;;;;;;;;;0.75;65.01;102651.84;5050855;28;19948;-59
2021/12/21 08:13:32;;;;;;;;;;;;;;;0.75;65.13;102654.56;5053672;28;20075;-60
2021/12/21 08:15:57;;;;;;;;;;;;;;;0.75;65.40;102649.13;5050772;28;19921;-60
2021/12/21 08:18:22;;;;;;;;;;;;;;;0.73;65.11;102649.22;5054012;28;19935;-60
2021/12/21 08:20:47;;;;;;;;;;;;;;;0.70;65.02;102644.06;5052725;28;19963;-60
2021/12/21 08:23:13;;;;;;;;;;;;;;;0.71;65.16;102656.72;5053686;28;19921;-60
2021/12/21 08:25:38;;;;;;;;;;;;;;;0.70;65.27;102646.78;5044609;28;19921;-61
2021/12/21 08:28:04;;;;;;;;;;;;;;;0.71;65.11;102650.41;5054416;28;19928;-60
2021/12/21 08:30:30;;;;;;;;;;;;;;;0.69;65.78;102652.41;5052426;28;19927;-60
2021/12/21 08:32:57;;;;;;;;;;;;;;;0.69;65.11;102644.22;5053622;28;20355;-61
2021/12/21 08:35:22;;;;;;;;;;;;;;;0.69;65.20;102645.06;5051022;28;19978;-60
2021/12/21 08:38:14;;;;;;;;;;;;;;;0.70;64.99;102645.94;5052519;28;19928;-60
2021/12/21 08:40:39;;;;;;;;;;;;;;;0.72;65.47;102657.59;5052729;28;19968;-60
2021/12/21 08:43:06;;;;;;;;;;;;;;;0.73;65.10;102651.97;5050679;28;19925;-60
2021/12/21 08:45:32;;;;;;;;;;;;;;;0.77;65.65;102649.81;5052355;28;20290;-60
2021/12/21 08:47:59;;;;;;;;;;;;;;;0.79;65.58;102655.16;5049990;28;19966;-60
2021/12/21 08:50:24;;;;;;;;;;;;;;;0.85;65.15;102657.28;5051272;28;19982;-60
2021/12/21 08:52:49;;;;;;;;;;;;;;;0.92;65.53;102651.09;5049257;28;20384;-61
2021/12/21 08:55:17;;;;;;;;;;;;;;;1.02;68.60;102662.00;5049342;28;19971;-60
2021/12/21 08:57:42;;;;;;;;;;;;;;;1.22;66.72;102660.13;5047946;28;20724;-59
2021/12/21 09:00:08;;;;;;;;;;;;;;;1.30;66.14;102662.09;5050238;28;19927;-59
2021/12/21 09:02:36;;;;;;;;;;;;;;;1.33;65.97;102661.81;5050314;28;19920;-59
2021/12/21 09:05:07;;;;;;;;;;;;;;;1.35;65.03;102662.53;5050834;28;19925;-59
2021/12/21 09:07:32;;;;;;;;;;;;;;;1.38;65.06;102670.47;5051896;28;19924;-59
2021/12/21 09:09:57;;;;;;;;;;;;;;;1.37;65.24;102666.81;5050962;28;19935;-59
2021/12/21 09:12:22;;;;;;;;;;;;;;;1.39;65.92;102672.16;5050601;28;19974;-61
2021/12/21 09:14:47;;;;;;;;;;;;;;;1.41;65.35;102667.41;5052671;28;19925;-59
2021/12/21 09:17:13;;;;;;;;;;;;;;;1.43;65.58;102674.47;5053071;28;20004;-59
2021/12/21 09:19:38;;;;;;;;;;;;;;;1.46;66.00;102667.84;5047381;28;19921;-59
2021/12/21 09:22:03;;;;;;;;;;;;;;;1.48;65.67;102668.53;5048772;28;19923;-67
2021/12/21 09:24:29;;;;;;;;;;;;;;;1.47;65.14;102661.34;5053056;28;19920;-61
2021/12/21 09:26:54;;;;;;;;;;;;;;;1.56;65.56;102674.13;5051375;28;19927;-60
2021/12/21 09:29:19;;;;;;;;;;;;;;;1.58;65.40;102663.03;5045492;28;19932;-60
2021/12/21 09:31:44;;;;;;;;;;;;;;;1.60;65.38;102661.84;5050061;28;19935;-59
2021/12/21 09:34:10;;;;;;;;;;;;;;;1.65;65.64;102665.03;5048763;28;20292;-60
2021/12/21 09:36:35;;;;;;;;;;;;;;;1.98;80.93;102668.19;5052487;28;19921;-60
2021/12/21 09:39:00;;;;;;;;;;;;;;;3.41;78.97;102659.94;5052302;28;20410;-61
2021/12/21 09:41:25;;;;;;;;;;;;;;;4.79;74.11;102654.06;5049676;28;19925;-61
2021/12/21 09:43:51;;;;;;;;;;;;;;;6.13;67.83;102664.50;5052943;28;20023;-61
2021/12/21 09:46:16;;;;;;;;;;;;;;;6.61;66.50;102654.25;5047840;28;20007;-61
2021/12/21 09:48:42;;;;;;;;;;;;;;;6.23;64.67;102653.28;5049900;28;19956;-61
2021/12/21 09:51:08;;;;;;;;;;;;;;;5.71;65.08;102653.81;5050599;28;19928;-62
2021/12/21 09:53:34;;;;;;;;;;;;;;;5.28;65.21;102655.97;5053104;28;19931;-61
2021/12/21 09:56:00;;;;;;;;;;;;;;;4.94;65.23;102648.75;5050725;28;19925;-61
2021/12/21 09:58:25;;;;;;;;;;;;;;;4.81;65.54;102651.16;5050755;28;19975;-61
2021/12/21 10:00:50;;;;;;;;;;;;;;;4.65;65.30;102647.38;5049106;28;19921;-62
2021/12/21 10:03:17;;;;;;;;;;;;;;;4.49;65.40;102647.34;5046659;28;20277;-62
2021/12/21 10:05:43;;;;;;;;;;;;;;;4.38;64.99;102640.28;5048252;28;19921;-61
2021/12/21 10:08:13;;;;;;;;;;;;;;;4.28;64.98;102639.53;5051614;28;19924;-63
2021/12/21 10:10:43;;;;;;;;;;;;;;;4.25;65.08;102636.28;5048463;28;19921;-62
2021/12/21 10:13:08;;;;;;;;;;;;;;;4.25;64.90;102647.28;5051599;28;19921;-63
2021/12/21 10:15:37;;;;;;;;;;;;;;;4.25;65.22;102644.53;5048395;28;19929;-63
2021/12/21 10:18:02;;;;;;;;;;;;;;;4.23;64.66;102639.19;5051200;28;19978;-63
2021/12/21 10:20:39;;;;;;;;;;;;;;;4.25;64.98;102644.53;5051467;28;19920;-63
2021/12/21 10:23:08;;;;;;;;;;;;;;;4.28;64.40;102649.69;5046476;28;20384;-63
2021/12/21 10:25:38;;;;;;;;;;;;;;;4.30;64.66;102633.91;5049652;28;20437;-63
2021/12/21 10:28:06;;;;;;;;;;;;;;;4.33;64.60;102633.56;5050694;28;19921;-62
2021/12/21 10:30:31;;;;;;;;;;;;;;;4.37;64.67;102623.94;5038813;28;19920;-63
2021/12/21 10:32:56;;;;;;;;;;;;;;;4.41;64.55;102628.09;5047746;28;20474;-63
2021/12/21 10:35:30;;;;;;;;;;;;;;;4.43;64.12;102621.38;5052134;28;19925;-63
2021/12/21 10:37:55;;;;;;;;;;;;;;;4.48;64.29;102625.50;5042163;28;19939;-63
2021/12/21 10:40:24;;;;;;;;;;;;;;;4.50;64.36;102616.06;5046784;28;19921;-62
2021/12/21 10:42:57;;;;;;;;;;;;;;;4.50;64.39;102613.31;5046063;28;20405;-62
2021/12/21 10:45:25;;;;;;;;;;;;;;;4.52;64.55;102621.38;5050324;28;19963;-62
2021/12/21 10:47:50;;;;;;;;;;;;;;;4.55;64.23;102619.16;5045171;28;19928;-61
2021/12/21 10:50:15;;;;;;;;;;;;;;;4.55;64.13;102616.41;5044780;28;19928;-61
2021/12/21 10:52:42;;;;;;;;;;;;;;;4.58;64.22;102615.22;5050310;28;19928;-61
2021/12/21 10:55:07;;;;;;;;;;;;;;;4.61;64.13;102623.97;5047063;28;19921;-61
2021/12/21 10:57:33;;;;;;;;;;;;;;;4.64;64.03;102618.16;5050231;28;19920;-61
2021/12/21 11:00:07;;;;;;;;;;;;;;;4.66;63.82;102612.47;5040204;28;20015;-61
2021/12/21 11:02:34;;;;;;;;;;;;;;;4.67;64.21;102612.28;5051014;28;20241;-62
2021/12/21 11:05:01;;;;;;;;;;;;;;;4.66;64.20;102607.81;5045633;28;19921;-61
2021/12/21 11:07:40;;;;;;;;;;;;;;;4.65;64.05;102608.84;5048024;28;19928;-61
2021/12/21 11:10:12;;;;;;;;;;;;;;;4.67;64.06;102615.03;5048761;28;21351;-61
2021/12/21 11:12:44;;;;;;;;;;;;;;;4.66;64.15;102599.56;5048400;28;19975;-61
2021/12/21 11:15:11;;;;;;;;;;;;;;;4.65;63.91;102602.50;5046808;28;20304;-61
2021/12/21 11:17:37;;;;;;;;;;;;;;;4.64;63.77;102604.41;5051064;28;19921;-62
2021/12/21 11:20:03;;;;;;;;;;;;;;;4.61;63.66;102604.72;5046091;28;19931;-67
2021/12/21 11:22:28;;;;;;;;;;;;;;;4.61;63.67;102610.22;5039979;28;19921;-63
2021/12/21 11:24:54;;;;;;;;;;;;;;;4.62;63.81;102598.19;5046788;28;19975;-64
2021/12/21 11:27:22;;;;;;;;;;;;;;;4.61;64.00;102599.22;5050036;28;19952;-64
2021/12/21 11:29:50;;;;;;;;;;;;;;;4.59;63.27;102589.41;5050800;28;20442;-64
2021/12/21 11:32:16;;;;;;;;;;;;;;;4.60;63.53;102592.00;5047591;28;20383;-63
2021/12/21 11:35:07;;;;;;;;;;;;;;;4.60;63.88;102578.25;5050236;28;20344;-62
2021/12/21 11:37:29;;;;;;;;;;;;;;;4.61;63.90;102566.22;5056298;28;19960;-64
2021/12/21 11:39:55;;;;;;;;;;;;;;;4.61;63.63;102555.22;5052347;28;19979;-65
2021/12/21 11:42:29;;;;;;;;;;;;;;;4.59;63.67;102543.53;5050270;28;19929;-63
2021/12/21 11:44:56;;;;;;;;;;;;;;;4.60;63.92;102556.25;5048131;28;19921;-64
2021/12/21 11:47:32;;;;;;;;;;;;;;;4.60;63.77;102553.50;5054536;28;20331;-65
2021/12/21 11:50:04;;;;;;;;;;;;;;;4.62;63.39;102559.69;5048149;28;20269;-62
2021/12/21 11:52:30;;;;;;;;;;;;;;;4.62;63.43;102565.19;5054805;28;19925;-62
2021/12/21 11:55:05;;;;;;;;;;;;;;;4.61;63.75;102557.97;5051500;28;19925;-62
2021/12/21 11:57:34;;;;;;;;;;;;;;;4.60;63.54;102556.25;5054539;28;19925;-62
2021/12/21 12:00:07;;;;;;;;;;;;;;;4.62;63.61;102553.31;5045040;28;19921;-62
2021/12/21 12:02:33;;;;;;;;;;;;;;;4.64;63.59;102551.28;5049332;28;19937;-62
2021/12/21 12:04:58;;;;;;;;;;;;;;;4.63;63.18;102550.41;5054487;28;20368;-62
2021/12/21 12:07:23;;;;;;;;;;;;;;;4.64;63.34;102551.28;5054544;28;19957;-61
2021/12/21 12:10:03;;;;;;;;;;;;;;;4.62;63.21;102545.94;5052837;28;19921;-61
2021/12/21 12:12:29;;;;;;;;;;;;;;;4.62;63.22;102543.19;5054853;28;19921;-63
2021/12/21 12:15:00;;;;;;;;;;;;;;;4.63;63.08;102542.13;5053870;28;19974;-61
2021/12/21 12:17:26;;;;;;;;;;;;;;;4.65;63.09;102539.25;5048502;28;19965;-61
2021/12/21 12:19:52;;;;;;;;;;;;;;;4.66;63.13;102539.06;5053121;28;19921;-60
2021/12/21 12:22:17;;;;;;;;;;;;;;;4.66;63.30;102533.56;5052304;28;20019;-60
2021/12/21 12:24:47;;;;;;;;;;;;;;;4.67;63.30;102532.50;5050789;28;19935;-62
2021/12/21 12:27:16;;;;;;;;;;;;;;;4.66;63.21;102533.56;5052905;28;20299;-61
2021/12/21 12:29:47;;;;;;;;;;;;;;;4.68;63.05;102545.25;5051028;28;20279;-62
2021/12/21 12:32:16;;;;;;;;;;;;;;;4.68;63.23;102548.00;5053005;28;19924;-61
2021/12/21 12:34:42;;;;;;;;;;;;;;;4.67;63.04;102546.25;5052761;28;20431;-62
2021/12/21 12:37:27;;;;;;;;;;;;;;;4.65;63.32;102540.09;5052821;28;20082;-62
2021/12/21 12:39:56;;;;;;;;;;;;;;;4.65;63.17;102523.59;5053639;28;19921;-62
2021/12/21 12:42:23;;;;;;;;;;;;;;;4.65;63.09;102526.34;5052487;28;19921;-62
2021/12/21 12:44:50;;;;;;;;;;;;;;;4.65;62.50;102514.50;5051352;28;20407;-61
2021/12/21 12:47:15;;;;;;;;;;;;;;;4.66;63.14;102524.44;5052261;28;19920;-62
2021/12/21 12:49:46;;;;;;;;;;;;;;;4.65;62.70;102518.09;5047203;28;19928;-61
2021/12/21 12:52:17;;;;;;;;;;;;;;;4.65;62.69;102509.00;5041252;28;20396;-61
2021/12/21 12:54:44;;;;;;;;;;;;;;;4.65;62.88;102504.34;5051064;28;19928;-62
2021/12/21 12:57:10;;;;;;;;;;;;;;;4.66;63.08;102503.31;5052212;28;19921;-61
2021/12/21 12:59:36;;;;;;;;;;;;;;;4.65;62.87;102496.09;5049845;28;19956;-61
2021/12/21 13:02:06;;;;;;;;;;;;;;;4.65;62.59;102496.09;5051173;28;20388;-61
2021/12/21 13:04:32;;;;;;;;;;;;;;;4.64;62.48;102499.03;5046654;28;20303;-61
2021/12/21 13:06:57;;;;;;;;;;;;;;;4.64;62.98;102497.13;5045708;28;20313;-61
2021/12/21 13:09:23;;;;;;;;;;;;;;;4.65;62.74;102482.34;5051164;28;19924;-61
2021/12/21 13:11:48;;;;;;;;;;;;;;;4.65;62.73;102485.09;5049800;28;20384;-61
2021/12/21 13:14:14;;;;;;;;;;;;;;;4.67;62.87;102482.16;5056153;28;19932;-62
2021/12/21 13:16:40;;;;;;;;;;;;;;;4.68;62.88;102487.50;5049780;28;20146;-63
2021/12/21 13:19:11;;;;;;;;;;;;;;;4.68;62.86;102489.41;5050836;28;20023;-62
2021/12/21 13:21:44;;;;;;;;;;;;;;;4.68;62.73;102490.25;5044743;28;19968;-62
2021/12/21 13:24:18;;;;;;;;;;;;;;;4.67;62.57;102485.75;5051259;28;20015;-61
2021/12/21 13:26:54;;;;;;;;;;;;;;;4.67;63.00;102488.50;5047948;28;19925;-61
2021/12/21 13:29:21;;;;;;;;;;;;;;;4.66;62.41;102486.78;5059079;28;19928;-61
2021/12/21 13:31:47;;;;;;;;;;;;;;;4.68;62.61;102481.13;5044138;28;20405;-61
2021/12/21 13:34:13;;;;;;;;;;;;;;;4.68;62.94;102483.88;5044693;28;19925;-61
2021/12/21 13:36:45;;;;;;;;;;;;;;;4.67;62.73;102484.91;5050857;28;19921;-61
2021/12/21 13:39:22;;;;;;;;;;;;;;;4.66;62.64;102492.28;5050534;28;19929;-61
2021/12/21 13:41:49;;;;;;;;;;;;;;;4.67;62.75;102502.25;5047522;28;19921;-61
2021/12/21 13:44:25;;;;;;;;;;;;;;;4.70;62.90;102500.22;5049717;28;19932;-62
2021/12/21 13:46:51;;;;;;;;;;;;;;;4.70;62.68;102500.22;5050782;28;19920;-61
2021/12/21 13:49:17;;;;;;;;;;;;;;;4.71;62.72;102501.91;5052740;28;19928;-62